Ocqueoc, Michigan
Current Conditions -  °F | °C
As of 12:14 PM on Thursday 18 Dec 2014 (Local Time) from KPZQ Reporting Station
Overcast Overcast  
Wind Chill: 13°   Ceiling: 1400
Heat Index: 24°   Visibility: 10mi
Dew Point: 21°   Wind: 10mph
Humidity: 87%   Direction: 350°N
Pressure: 30.22"   Gusts: NA
Location:  45.412°N, 84.1131°W
Report Text: KPZQ 181714Z AUTO 35009KT 10SM OVC014 M04/M06 A3022 RMK AO2 T10451063
Loading
Personal Weather Stations






























Interactive Weather Map New forecast layout! Learn more

10-Day Weather Forecast

Advertisements
Track Severe Weather on mobile